createdAt,value
2019-05-05T00:01:46.302Z,4.93
2019-05-05T00:04:30.071Z,4.53
2019-05-05T00:07:00.772Z,4.40
2019-05-05T00:09:38.378Z,8.53
2019-05-05T00:12:40.343Z,6.33
2019-05-05T00:15:24.954Z,7.70
2019-05-05T00:17:55.103Z,3.90
2019-05-05T00:20:25.590Z,3.83
2019-05-05T00:22:56.289Z,6.67
2019-05-05T00:25:30.811Z,2.87
2019-05-05T00:28:01.461Z,4.73
2019-05-05T00:30:31.871Z,3.90
2019-05-05T00:33:02.230Z,5.10
2019-05-05T00:35:34.473Z,5.40
2019-05-05T00:38:05.398Z,4.13
2019-05-05T00:40:35.757Z,4.07
2019-05-05T00:43:06.244Z,4.80
2019-05-05T00:45:37.898Z,6.77
2019-05-05T00:48:16.596Z,3.83
2019-05-05T00:50:46.977Z,3.13
2019-05-05T00:53:17.420Z,5.80
2019-05-05T00:55:47.822Z,5.70
2019-05-05T00:58:18.248Z,5.57
2019-05-05T01:01:02.143Z,4.83
2019-05-05T01:03:34.744Z,3.67
2019-05-05T01:06:19.511Z,3.33
2019-05-05T01:08:49.987Z,5.80
2019-05-05T01:11:20.601Z,4.80
2019-05-05T01:13:51.026Z,4.20
2019-05-05T01:16:21.423Z,3.30
2019-05-05T01:18:51.874Z,4.37
2019-05-05T01:21:24.294Z,5.03
2019-05-05T01:23:54.918Z,6.07
2019-05-05T01:26:25.564Z,5.10
2019-05-05T01:28:56.383Z,6.10
2019-05-05T01:31:27.860Z,3.73
2019-05-05T01:34:19.790Z,4.83
2019-05-05T01:36:55.388Z,3.97
2019-05-05T01:39:38.884Z,4.47
2019-05-05T01:42:14.304Z,6.70
2019-05-05T01:44:45.175Z,6.27
2019-05-05T01:47:15.599Z,5.43
2019-05-05T01:49:46.405Z,3.47
2019-05-05T01:52:16.763Z,7.23
2019-05-05T01:54:47.114Z,4.93
2019-05-05T01:57:17.993Z,4.77
2019-05-05T01:59:48.660Z,4.33
2019-05-05T02:02:19.441Z,4.43
2019-05-05T02:04:50.096Z,5.30
2019-05-05T02:07:20.449Z,5.43
2019-05-05T02:09:50.819Z,5.40
2019-05-05T02:12:21.558Z,3.00
2019-05-05T02:14:51.927Z,4.90
2019-05-05T02:17:24.201Z,4.97
2019-05-05T02:19:55.118Z,5.23
2019-05-05T02:22:28.731Z,5.57
2019-05-05T02:24:59.057Z,6.17
2019-05-05T02:27:29.833Z,4.40
2019-05-05T02:30:19.144Z,5.90
2019-05-05T02:32:55.427Z,4.33
2019-05-05T02:35:25.888Z,3.10
2019-05-05T02:37:56.237Z,5.60
2019-05-05T02:40:27.811Z,6.30
2019-05-05T02:43:00.207Z,6.90
2019-05-05T02:46:17.143Z,5.93
2019-05-05T02:48:51.832Z,4.67
2019-05-05T02:51:25.984Z,5.37
2019-05-05T02:53:59.113Z,5.10
2019-05-05T02:56:39.594Z,3.57
2019-05-05T02:59:14.731Z,5.67
2019-05-05T03:01:53.745Z,6.00
2019-05-05T03:04:25.302Z,4.03
2019-05-05T03:06:59.628Z,5.03
2019-05-05T03:09:31.705Z,5.23
2019-05-05T03:12:04.959Z,5.10
2019-05-05T03:14:38.138Z,3.90
2019-05-05T03:17:14.343Z,5.93
2019-05-05T03:19:45.892Z,5.87
2019-05-05T03:22:16.831Z,5.30
2019-05-05T03:24:49.262Z,6.73
2019-05-05T03:27:19.705Z,5.07
2019-05-05T03:29:50.412Z,5.10
2019-05-05T03:32:24.893Z,7.10
2019-05-05T03:34:54.380Z,6.97
2019-05-05T03:37:25.135Z,4.53
2019-05-05T03:40:04.274Z,5.03
2019-05-05T03:42:53.884Z,7.20
2019-05-05T03:45:35.023Z,7.30
2019-05-05T03:48:05.571Z,7.43
2019-05-05T03:50:36.045Z,6.47
2019-05-05T03:53:07.503Z,5.10
2019-05-05T03:55:38.022Z,6.83
2019-05-05T03:58:08.559Z,5.00
2019-05-05T04:01:37.551Z,5.23
2019-05-05T04:04:27.514Z,5.83
2019-05-05T04:06:58.185Z,5.53
2019-05-05T04:09:28.669Z,5.23
2019-05-05T04:11:59.293Z,5.90
2019-05-05T04:14:29.682Z,6.90
2019-05-05T04:17:15.190Z,7.57
2019-05-05T04:19:48.658Z,6.40
2019-05-05T04:22:19.061Z,7.73
2019-05-05T04:24:49.664Z,7.17
2019-05-05T04:27:20.084Z,6.30
2019-05-05T04:29:50.425Z,6.40
2019-05-05T04:32:20.795Z,8.07
2019-05-05T04:34:51.136Z,6.63
2019-05-05T04:37:23.351Z,6.33
2019-05-05T04:39:54.077Z,7.40
2019-05-05T04:42:24.650Z,8.10
2019-05-05T04:44:55.105Z,6.83
2019-05-05T04:47:30.757Z,6.40
2019-05-05T04:50:14.631Z,5.27
2019-05-05T04:52:46.479Z,8.13
2019-05-05T04:55:16.819Z,8.97
2019-05-05T04:57:47.469Z,7.80
2019-05-05T05:00:17.807Z,6.97
2019-05-05T05:03:04.478Z,7.00
2019-05-05T05:06:00.532Z,5.67
2019-05-05T05:08:31.005Z,9.27
2019-05-05T05:11:03.516Z,10.23
2019-05-05T05:13:35.926Z,9.30
2019-05-05T05:16:06.360Z,8.57
2019-05-05T05:18:36.721Z,9.80
2019-05-05T05:21:07.063Z,7.17
2019-05-05T05:23:37.772Z,9.77
2019-05-05T05:26:08.347Z,10.97
2019-05-05T05:28:39.303Z,13.47
2019-05-05T05:31:09.963Z,7.87
2019-05-05T05:33:40.279Z,10.30
2019-05-05T05:36:10.820Z,8.50
2019-05-05T05:38:43.725Z,10.73
2019-05-05T05:41:16.225Z,7.73
2019-05-05T05:44:04.927Z,8.03
2019-05-05T05:46:54.564Z,8.73
2019-05-05T05:49:41.477Z,7.47
2019-05-05T05:52:18.571Z,11.23
2019-05-05T05:54:45.182Z,7.87
2019-05-05T05:57:15.659Z,9.67
2019-05-05T05:59:58.477Z,8.30
2019-05-05T06:02:28.843Z,11.03
2019-05-05T06:04:59.586Z,13.97
2019-05-05T06:07:30.172Z,11.43
2019-05-05T06:10:00.536Z,11.23
2019-05-05T06:12:33.485Z,7.50
2019-05-05T06:15:03.973Z,8.47
2019-05-05T06:17:34.735Z,12.60
2019-05-05T06:20:05.991Z,11.53
2019-05-05T06:22:36.345Z,9.20
2019-05-05T06:25:07.049Z,9.67
2019-05-05T06:27:37.453Z,12.10
2019-05-05T06:30:08.814Z,9.77
2019-05-05T06:32:39.150Z,9.47
2019-05-05T06:35:14.003Z,9.20
2019-05-05T06:37:54.313Z,11.10
2019-05-05T06:40:35.669Z,9.70
2019-05-05T06:43:31.910Z,10.30
2019-05-05T06:46:04.508Z,9.83
2019-05-05T06:48:34.874Z,11.53
2019-05-05T06:51:05.260Z,13.17
2019-05-05T06:53:36.345Z,11.87
2019-05-05T06:56:06.667Z,11.00
2019-05-05T06:58:37.330Z,9.90
2019-05-05T07:01:07.680Z,10.07
2019-05-05T07:03:38.052Z,13.07
2019-05-05T07:06:08.682Z,10.43
2019-05-05T07:08:40.144Z,13.67
2019-05-05T07:11:19.687Z,14.30
2019-05-05T07:13:50.131Z,10.50
2019-05-05T07:16:20.723Z,12.73
2019-05-05T07:18:51.044Z,13.57
2019-05-05T07:21:23.514Z,14.97
2019-05-05T07:23:54.006Z,10.23
2019-05-05T07:26:25.064Z,15.60
2019-05-05T07:28:55.419Z,13.23
2019-05-05T07:31:26.069Z,13.93
2019-05-05T07:33:56.519Z,14.03
2019-05-05T07:36:41.158Z,14.47
2019-05-05T07:39:14.232Z,13.67
2019-05-05T07:41:44.701Z,15.67
2019-05-05T07:44:25.743Z,14.57
2019-05-05T07:46:47.914Z,15.63
2019-05-05T07:49:18.273Z,18.03
2019-05-05T07:51:49.034Z,18.20
2019-05-05T07:54:19.945Z,14.43
2019-05-05T07:56:50.307Z,13.00
2019-05-05T07:59:21.196Z,14.90
2019-05-05T08:01:51.581Z,18.33
2019-05-05T08:04:24.109Z,16.77
2019-05-05T08:06:54.091Z,13.93
2019-05-05T08:09:25.082Z,17.77
2019-05-05T08:11:55.494Z,14.97
2019-05-05T08:14:25.892Z,21.87
2019-05-05T08:17:19.187Z,16.90
2019-05-05T08:20:08.996Z,17.73
2019-05-05T08:22:40.033Z,16.73
2019-05-05T08:25:36.155Z,22.67
2019-05-05T08:28:14.712Z,17.87
2019-05-05T08:31:10.139Z,19.47
2019-05-05T08:33:40.599Z,20.87
2019-05-05T08:36:11.126Z,21.50
2019-05-05T08:38:43.971Z,19.20
2019-05-05T08:41:14.101Z,23.03
2019-05-05T08:43:44.539Z,20.03
2019-05-05T08:46:14.961Z,22.53
2019-05-05T08:48:45.680Z,20.33
2019-05-05T08:51:16.077Z,18.10
2019-05-05T08:53:48.341Z,22.43
2019-05-05T08:56:18.576Z,15.63
2019-05-05T08:58:49.943Z,18.63
2019-05-05T09:01:20.389Z,19.70
2019-05-05T09:03:50.772Z,18.47
2019-05-05T09:06:21.462Z,22.97
2019-05-05T09:08:52.157Z,18.50
2019-05-05T09:11:24.041Z,13.43
2019-05-05T09:13:54.689Z,17.23
2019-05-05T09:16:25.065Z,17.83
2019-05-05T09:19:04.142Z,18.07
2019-05-05T09:21:41.861Z,21.90
2019-05-05T09:24:31.159Z,18.47
2019-05-05T09:27:05.943Z,19.53
2019-05-05T09:29:38.859Z,17.97
2019-05-05T09:32:09.230Z,20.20
2019-05-05T09:34:43.463Z,19.97
2019-05-05T09:37:14.367Z,17.77
2019-05-05T09:39:44.840Z,17.20
2019-05-05T09:42:15.161Z,13.07
2019-05-05T09:44:45.539Z,8.73
2019-05-05T09:47:15.969Z,10.20
2019-05-05T09:49:46.726Z,10.70
2019-05-05T09:52:17.560Z,9.07
2019-05-05T09:54:55.822Z,10.57
2019-05-05T09:57:26.301Z,10.90
2019-05-05T10:00:08.322Z,14.53
2019-05-05T10:02:39.104Z,16.87
2019-05-05T10:05:09.961Z,14.40
2019-05-05T10:07:40.814Z,15.10
2019-05-05T10:10:13.677Z,15.40
2019-05-05T10:12:44.671Z,14.27
2019-05-05T10:15:16.265Z,15.90
2019-05-05T10:17:47.284Z,15.53
2019-05-05T10:20:26.793Z,14.47
2019-05-05T10:22:57.236Z,17.63
2019-05-05T10:25:48.966Z,15.47
2019-05-05T10:28:19.508Z,13.07
2019-05-05T10:30:53.745Z,13.73
2019-05-05T10:33:24.647Z,12.90
2019-05-05T10:35:55.264Z,13.07
2019-05-05T10:38:25.888Z,12.27
2019-05-05T10:40:56.241Z,11.70
2019-05-05T10:43:26.589Z,11.27
2019-05-05T10:45:57.102Z,14.43
2019-05-05T10:48:27.931Z,13.73
2019-05-05T10:50:58.279Z,12.10
2019-05-05T10:53:29.754Z,12.97
2019-05-05T10:56:00.932Z,9.63
2019-05-05T10:58:33.598Z,14.33
2019-05-05T11:01:04.386Z,9.90
2019-05-05T11:03:34.960Z,13.07
2019-05-05T11:06:06.453Z,12.97
2019-05-05T11:08:37.483Z,12.27
2019-05-05T11:11:08.635Z,15.23
2019-05-05T11:13:45.523Z,12.50
2019-05-05T11:16:17.209Z,11.00
2019-05-05T11:18:48.437Z,13.30
2019-05-05T11:21:18.932Z,10.87
2019-05-05T11:23:49.949Z,12.37
2019-05-05T11:26:20.338Z,13.57
2019-05-05T11:28:53.773Z,13.17
2019-05-05T11:31:34.394Z,15.77
2019-05-05T11:34:14.138Z,14.97
2019-05-05T11:36:48.495Z,11.93
2019-05-05T11:39:25.796Z,12.13
2019-05-05T11:41:56.440Z,15.43
2019-05-05T11:44:28.250Z,14.20
2019-05-05T11:46:58.955Z,11.00
2019-05-05T11:49:29.337Z,15.30
2019-05-05T11:52:01.753Z,16.30
2019-05-05T11:54:32.181Z,13.73
2019-05-05T11:57:04.326Z,11.80
2019-05-05T11:59:34.951Z,12.93
2019-05-05T12:02:05.376Z,9.20
2019-05-05T12:04:35.794Z,9.17
2019-05-05T12:07:08.185Z,10.77
2019-05-05T12:09:49.983Z,12.40
2019-05-05T12:12:22.753Z,13.37
2019-05-05T12:14:54.447Z,11.70
2019-05-05T12:17:37.265Z,12.63
2019-05-05T12:20:09.400Z,12.13
2019-05-05T12:22:39.957Z,12.47
2019-05-05T12:25:28.809Z,12.13
2019-05-05T12:28:09.602Z,9.73
2019-05-05T12:30:40.335Z,14.87
2019-05-05T12:33:10.736Z,11.37
2019-05-05T12:35:41.304Z,11.30
2019-05-05T12:38:11.736Z,10.27
2019-05-05T12:40:48.099Z,13.80
2019-05-05T12:43:18.563Z,11.43
2019-05-05T12:45:54.030Z,12.10
2019-05-05T12:48:30.136Z,9.07
2019-05-05T12:51:01.173Z,11.83
2019-05-05T12:53:33.661Z,11.43
2019-05-05T12:56:04.198Z,13.00
2019-05-05T12:58:34.641Z,10.70
2019-05-05T13:01:16.182Z,11.50
2019-05-05T13:03:46.647Z,9.80
2019-05-05T13:06:17.688Z,10.30
2019-05-05T13:08:48.379Z,9.13
2019-05-05T13:11:18.915Z,12.30
2019-05-05T13:13:49.322Z,12.73
2019-05-05T13:16:22.536Z,12.93
2019-05-05T13:18:53.887Z,13.27
2019-05-05T13:21:54.152Z,13.10
2019-05-05T13:25:37.287Z,13.40
2019-05-05T13:28:07.740Z,11.07
2019-05-05T13:30:47.477Z,12.70
2019-05-05T13:33:18.347Z,10.50
2019-05-05T13:35:48.768Z,9.93
2019-05-05T13:38:19.934Z,9.60
2019-05-05T13:40:50.622Z,10.83
2019-05-05T13:43:23.664Z,9.47
2019-05-05T13:46:15.681Z,14.77
2019-05-05T13:48:46.098Z,11.77
2019-05-05T13:51:17.360Z,12.77
2019-05-05T13:53:47.778Z,13.53
2019-05-05T13:56:18.209Z,9.70
2019-05-05T13:58:48.905Z,12.50
2019-05-05T14:01:19.351Z,13.80
2019-05-05T14:03:49.712Z,13.00
2019-05-05T14:06:20.173Z,12.13
2019-05-05T14:08:50.526Z,10.17
2019-05-05T14:11:21.224Z,12.50
2019-05-05T14:13:56.199Z,8.83
2019-05-05T14:16:26.905Z,10.37
2019-05-05T14:18:58.039Z,7.57
2019-05-05T14:21:29.785Z,8.37
2019-05-05T14:24:14.525Z,10.77
2019-05-05T14:26:44.985Z,9.10
2019-05-05T14:29:34.651Z,14.30
2019-05-05T14:32:05.785Z,10.43
2019-05-05T14:34:38.033Z,15.37
2019-05-05T14:37:26.178Z,14.07
2019-05-05T14:39:57.402Z,11.57
2019-05-05T14:42:27.878Z,11.00
2019-05-05T14:44:58.390Z,11.53
2019-05-05T14:47:28.899Z,9.27
2019-05-05T14:49:59.783Z,9.60
2019-05-05T14:52:30.256Z,11.43
2019-05-05T14:55:00.686Z,9.77
2019-05-05T14:57:31.178Z,10.40
2019-05-05T15:00:04.557Z,14.00
2019-05-05T15:02:35.107Z,12.23
2019-05-05T15:05:24.424Z,12.17
2019-05-05T15:08:08.549Z,10.57
2019-05-05T15:10:59.607Z,9.20
2019-05-05T15:13:30.768Z,8.73
2019-05-05T15:16:01.281Z,11.03
2019-05-05T15:18:32.009Z,8.83
2019-05-05T15:21:03.189Z,9.83
2019-05-05T15:23:34.536Z,11.90
2019-05-05T15:26:05.651Z,7.50
2019-05-05T15:28:36.125Z,10.40
2019-05-05T15:31:06.764Z,10.07
2019-05-05T15:33:37.554Z,13.27
2019-05-05T15:36:08.296Z,8.93
2019-05-05T15:38:40.440Z,10.63
2019-05-05T15:41:10.883Z,7.47
2019-05-05T15:43:41.350Z,8.67
2019-05-05T15:46:12.355Z,8.37
2019-05-05T15:48:43.899Z,8.63
2019-05-05T15:51:14.557Z,7.50
2019-05-05T15:53:46.274Z,9.23
2019-05-05T15:56:17.563Z,7.50
2019-05-05T15:58:48.218Z,10.47
2019-05-05T16:01:18.776Z,11.13
2019-05-05T16:03:50.051Z,8.93
2019-05-05T16:06:20.678Z,8.20
2019-05-05T16:08:54.459Z,10.13
2019-05-05T16:11:26.786Z,7.53
2019-05-05T16:13:56.903Z,8.50
2019-05-05T16:16:51.580Z,9.07
2019-05-05T16:19:33.964Z,12.80
2019-05-05T16:22:10.999Z,8.63
2019-05-05T16:25:16.794Z,10.07
2019-05-05T16:27:48.364Z,6.80
2019-05-05T16:30:19.266Z,7.40
2019-05-05T16:32:50.317Z,8.87
2019-05-05T16:35:20.648Z,6.40
2019-05-05T16:37:51.160Z,6.03
2019-05-05T16:40:23.315Z,7.83
2019-05-05T16:42:54.294Z,6.37
2019-05-05T16:45:25.707Z,5.23
2019-05-05T16:47:56.512Z,7.10
2019-05-05T16:50:27.138Z,6.07
2019-05-05T16:53:03.992Z,6.57
2019-05-05T16:55:44.825Z,6.83
2019-05-05T16:58:15.181Z,5.50
2019-05-05T17:00:45.551Z,9.63
2019-05-05T17:03:15.892Z,5.90
2019-05-05T17:05:48.370Z,7.67
2019-05-05T17:08:18.740Z,5.97
2019-05-05T17:10:49.373Z,6.00
2019-05-05T17:13:35.685Z,8.43
2019-05-05T17:16:44.542Z,10.47
2019-05-05T17:19:25.035Z,8.33
2019-05-05T17:22:13.377Z,9.10
2019-05-05T17:24:44.084Z,7.17
2019-05-05T17:27:14.599Z,10.77
2019-05-05T17:29:45.451Z,9.73
2019-05-05T17:32:15.841Z,7.97
2019-05-05T17:34:46.248Z,8.67
2019-05-05T17:37:16.603Z,8.37
2019-05-05T17:39:54.602Z,11.00
2019-05-05T17:42:37.004Z,9.13
2019-05-05T17:45:25.534Z,12.00
2019-05-05T17:48:05.603Z,9.57
2019-05-05T17:51:05.067Z,8.07
2019-05-05T17:53:54.633Z,9.77
2019-05-05T17:56:25.115Z,6.97
2019-05-05T17:58:56.110Z,12.27
2019-05-05T18:01:26.821Z,12.17
2019-05-05T18:03:57.347Z,8.10
2019-05-05T18:06:41.430Z,5.87
2019-05-05T18:09:29.928Z,6.73
2019-05-05T18:12:10.792Z,10.43
2019-05-05T18:14:41.512Z,10.27
2019-05-05T18:17:13.666Z,10.07
2019-05-05T18:19:44.158Z,12.47
2019-05-05T18:22:14.624Z,12.77
2019-05-05T18:24:45.767Z,14.07
2019-05-05T18:27:16.100Z,9.60
2019-05-05T18:29:46.989Z,11.60
2019-05-05T18:32:18.997Z,9.30
2019-05-05T18:34:49.334Z,9.67
2019-05-05T18:37:24.289Z,11.13
2019-05-05T18:39:55.732Z,7.27
2019-05-05T18:42:26.390Z,7.67
2019-05-05T18:45:04.470Z,8.97
2019-05-05T18:47:45.415Z,9.07
2019-05-05T18:50:16.500Z,9.83
2019-05-05T18:52:47.368Z,9.37
2019-05-05T18:55:18.011Z,9.10
2019-05-05T18:57:48.341Z,10.53
2019-05-05T19:00:28.263Z,9.97
2019-05-05T19:03:15.088Z,10.20
2019-05-05T19:06:04.241Z,10.73
2019-05-05T19:08:51.908Z,8.33
2019-05-05T19:11:12.168Z,7.83
2019-05-05T19:13:46.889Z,7.77
2019-05-05T19:16:17.618Z,10.77
2019-05-05T19:18:48.278Z,10.30
2019-05-05T19:21:24.882Z,9.00
2019-05-05T19:23:55.273Z,11.57
2019-05-05T19:26:25.678Z,12.70
2019-05-05T19:28:56.007Z,12.20
2019-05-05T19:31:27.265Z,8.57
2019-05-05T19:33:57.916Z,7.83
2019-05-05T19:36:28.281Z,6.67
2019-05-05T19:39:09.005Z,7.60
2019-05-05T19:41:39.647Z,11.20
2019-05-05T19:44:09.972Z,10.50
2019-05-05T19:46:47.400Z,9.60
2019-05-05T19:49:18.660Z,9.40
2019-05-05T19:51:49.563Z,7.10
2019-05-05T19:54:20.333Z,7.23
2019-05-05T19:56:50.880Z,8.47
2019-05-05T19:59:21.534Z,7.53
2019-05-05T20:01:53.874Z,8.27
2019-05-05T20:04:24.218Z,9.47
2019-05-05T20:06:55.085Z,27.70
2019-05-05T20:09:25.794Z,10.93
2019-05-05T20:11:56.271Z,8.90
2019-05-05T20:14:26.864Z,8.77
2019-05-05T20:17:06.282Z,8.10
2019-05-05T20:19:43.753Z,9.50
2019-05-05T20:22:14.741Z,7.33
2019-05-05T20:24:45.532Z,8.70
2019-05-05T20:27:16.731Z,7.53
2019-05-05T20:29:47.182Z,6.87
2019-05-05T20:32:30.338Z,6.77
2019-05-05T20:35:10.026Z,8.10
2019-05-05T20:37:46.665Z,10.23
2019-05-05T20:40:19.235Z,8.20
2019-05-05T20:43:00.787Z,8.00
2019-05-05T20:45:34.681Z,10.37
2019-05-05T20:48:05.225Z,13.37
2019-05-05T20:50:35.649Z,8.77
2019-05-05T20:53:16.236Z,8.00
2019-05-05T20:55:46.732Z,10.07
2019-05-05T20:58:17.113Z,9.20
2019-05-05T21:00:47.462Z,8.13
2019-05-05T21:03:17.994Z,9.13
2019-05-05T21:05:48.705Z,9.07
2019-05-05T21:08:20.478Z,9.97
2019-05-05T21:10:50.873Z,7.20
2019-05-05T21:13:24.448Z,10.93
2019-05-05T21:15:55.379Z,9.30
2019-05-05T21:18:26.502Z,9.80
2019-05-05T21:20:58.803Z,10.43
2019-05-05T21:23:36.512Z,7.90
2019-05-05T21:26:13.938Z,9.90
2019-05-05T21:28:44.681Z,8.80
2019-05-05T21:31:15.003Z,7.93
2019-05-05T21:33:45.736Z,6.20
2019-05-05T21:36:17.300Z,10.37
2019-05-05T21:38:47.866Z,8.93
2019-05-05T21:41:19.301Z,10.17
2019-05-05T21:43:49.727Z,9.90
2019-05-05T21:46:20.162Z,9.60
2019-05-05T21:48:50.617Z,10.33
2019-05-05T21:51:32.133Z,11.17
2019-05-05T21:54:20.068Z,13.83
2019-05-05T21:57:05.731Z,10.37
2019-05-05T21:59:36.337Z,11.77
2019-05-05T22:02:08.168Z,10.07
2019-05-05T22:04:38.771Z,9.77
2019-05-05T22:07:09.151Z,9.17
2019-05-05T22:09:39.561Z,7.67
2019-05-05T22:12:29.052Z,8.83
2019-05-05T22:14:59.396Z,11.60
2019-05-05T22:17:49.208Z,11.40
2019-05-05T22:20:25.956Z,7.70
2019-05-05T22:22:56.586Z,10.50
2019-05-05T22:25:26.972Z,17.13
2019-05-05T22:27:58.952Z,9.10
2019-05-05T22:30:29.341Z,10.57
2019-05-05T22:33:00.114Z,9.13
2019-05-05T22:35:30.875Z,9.03
2019-05-05T22:38:01.254Z,11.23
2019-05-05T22:40:31.639Z,8.37
2019-05-05T22:43:03.652Z,11.13
2019-05-05T22:45:34.347Z,11.73
2019-05-05T22:48:04.820Z,8.07
2019-05-05T22:50:35.681Z,8.57
2019-05-05T22:53:06.335Z,8.70
2019-05-05T22:55:36.817Z,12.77
2019-05-05T22:58:07.450Z,11.57
2019-05-05T23:00:39.168Z,10.20
2019-05-05T23:03:20.336Z,11.57
2019-05-05T23:05:55.481Z,11.37
2019-05-05T23:08:25.876Z,12.97
2019-05-05T23:10:56.293Z,9.97
2019-05-05T23:13:27.036Z,11.60
2019-05-05T23:16:11.667Z,10.97
2019-05-05T23:18:44.185Z,11.97
2019-05-05T23:21:20.908Z,12.87
2019-05-05T23:24:09.095Z,12.80
2019-05-05T23:26:40.536Z,13.83
2019-05-05T23:29:10.881Z,11.80
2019-05-05T23:31:41.314Z,11.50
2019-05-05T23:34:11.640Z,9.97
2019-05-05T23:36:44.247Z,12.63
2019-05-05T23:39:14.354Z,12.23
2019-05-05T23:41:44.720Z,10.57
2019-05-05T23:44:15.332Z,10.73
2019-05-05T23:46:45.806Z,11.83
2019-05-05T23:49:16.187Z,8.53
2019-05-05T23:51:46.568Z,11.80
2019-05-05T23:54:17.961Z,12.30
2019-05-05T23:56:48.524Z,12.50
2019-05-05T23:59:19.149Z,11.00
